3OK8 weather

Flying G Ranch Airport
Sand Springs, Oklahoma, United States

Public forecast

Using degrees Fahrenheit for public forecast. Weather courtesy of forecast.io.

Closest aviation weather report (METAR) to Flying G Ranch Airport

Closest report is William R. Pogue Municipal Airport, 5.3 nm (9.8 km) NE. Retrieved 2019/12/07 18:35 UTC (4 minutes ago):

KOWP 071835Z AUTO 14003KT 10SM CLR 13/M02 A3027 RMK AO2 T01301020

Closest aviation forecast (TAF) to Flying G Ranch Airport

Closest forecast is Richard Lloyd Jones Jr Airport, 12.9 nm (24.0 km) ESE. Retrieved 2019/12/07 18:22 UTC (17 minutes ago):

TAF KRVS 071720Z 0718/0818 17007KT P6SM BKN250 FM081500 18010G18KT P6SM BKN025